Time;durP1;ratioP1;P1;durP2;ratioP2;P2;SDS_P1;SDS_P2;PMS_P1;PMS_P2;Temp;Humidity;BMP_temperature;BMP_pressure;BME280_temperature;BME280_humidity;BME280_pressure;Samples;Min_cycle;Max_cycle;Signal;HPM_P1;HPM_P2
2023/10/06 00:01:47;;;;;;;6.17;6.07;;;11.80;99.90;;;;;;5094525;28;20462;-66
2023/10/06 00:04:15;;;;;;;5.90;5.80;;;11.90;99.90;;;;;;5102753;28;20497;-67
2023/10/06 00:06:45;;;;;;;6.00;5.90;;;11.90;99.90;;;;;;5096852;28;20462;-66
2023/10/06 00:09:21;;;;;;;5.50;5.40;;;11.90;99.90;;;;;;5100283;28;20521;-65
2023/10/06 00:11:50;;;;;;;5.87;5.77;;;11.80;99.90;;;;;;5095149;28;20462;-66
2023/10/06 00:14:38;;;;;;;6.37;6.27;;;11.80;99.90;;;;;;5090427;28;20454;-66
2023/10/06 00:17:09;;;;;;;6.33;6.23;;;11.70;99.90;;;;;;5092166;28;20516;-67
2023/10/06 00:19:39;;;;;;;6.50;6.40;;;11.70;99.90;;;;;;5096116;28;20566;-67
2023/10/06 00:22:17;;;;;;;6.30;6.20;;;11.70;99.90;;;;;;5095266;28;20831;-68
2023/10/06 00:24:50;;;;;;;6.20;6.10;;;11.70;99.90;;;;;;5089599;28;20465;-66
2023/10/06 00:27:23;;;;;;;6.07;5.97;;;11.80;99.90;;;;;;5088720;28;20515;-67
2023/10/06 00:29:54;;;;;;;5.80;5.70;;;11.70;99.90;;;;;;5089841;28;20491;-66
2023/10/06 00:32:25;;;;;;;6.40;6.30;;;11.70;99.90;;;;;;5100617;28;20456;-66
2023/10/06 00:35:07;;;;;;;5.97;5.87;;;11.70;99.90;;;;;;5094526;28;20838;-66
2023/10/06 00:37:39;;;;;;;6.17;6.07;;;11.70;99.90;;;;;;5099622;28;20971;-66
2023/10/06 00:40:11;;;;;;;6.27;6.17;;;11.70;99.90;;;;;;5094888;28;20485;-66
2023/10/06 00:42:38;;;;;;;5.80;5.70;;;11.60;99.90;;;;;;5108858;28;20554;-65
2023/10/06 00:45:07;;;;;;;5.87;5.77;;;11.60;99.90;;;;;;5100730;28;20792;-66
2023/10/06 00:47:38;;;;;;;5.77;5.67;;;11.70;99.90;;;;;;5096113;28;20468;-68
2023/10/06 00:50:07;;;;;;;5.57;5.47;;;11.70;99.90;;;;;;5099405;28;20493;-66
2023/10/06 00:52:34;;;;;;;6.13;6.03;;;11.70;99.90;;;;;;5104179;28;20457;-67
2023/10/06 00:55:05;;;;;;;6.13;6.03;;;11.80;99.90;;;;;;5090225;27;20453;-66
2023/10/06 00:57:34;;;;;;;6.47;6.37;;;11.70;99.90;;;;;;5089302;28;20538;-67
2023/10/06 01:00:01;;;;;;;6.40;6.30;;;11.80;99.90;;;;;;5089556;28;20450;-66
2023/10/06 01:02:28;;;;;;;6.57;6.47;;;11.80;99.90;;;;;;5094783;28;20453;-66
2023/10/06 01:04:56;;;;;;;6.50;6.40;;;11.70;99.90;;;;;;5096089;28;22317;-67
2023/10/06 01:07:24;;;;;;;6.10;6.00;;;11.60;99.90;;;;;;5089203;28;20476;-68
2023/10/06 01:09:56;;;;;;;6.10;6.00;;;11.60;99.90;;;;;;5090562;28;21090;-68
2023/10/06 01:12:26;;;;;;;6.57;6.47;;;11.70;99.90;;;;;;5096759;28;20506;-68
2023/10/06 01:15:05;;;;;;;6.00;5.90;;;11.70;99.90;;;;;;5101534;28;20459;-68
2023/10/06 01:17:33;;;;;;;7.03;6.93;;;11.60;99.90;;;;;;5105210;28;20467;-68
2023/10/06 01:20:00;;;;;;;6.83;6.73;;;11.60;99.90;;;;;;5094435;28;20468;-65
2023/10/06 01:22:29;;;;;;;6.17;6.07;;;11.60;99.90;;;;;;5095297;28;20462;-66
2023/10/06 01:24:59;;;;;;;6.57;6.47;;;11.60;99.90;;;;;;5095421;28;20473;-66
2023/10/06 01:27:27;;;;;;;6.30;6.20;;;11.50;99.90;;;;;;5101234;28;20488;-67
2023/10/06 01:30:17;;;;;;;6.13;6.03;;;11.50;99.90;;;;;;5088702;28;20485;-66
2023/10/06 01:32:45;;;;;;;6.70;6.60;;;11.50;99.90;;;;;;5087472;28;20449;-66
2023/10/06 01:35:13;;;;;;;6.03;5.93;;;11.50;99.90;;;;;;5091251;28;20469;-66
2023/10/06 01:37:42;;;;;;;6.10;6.00;;;11.40;99.90;;;;;;5099198;28;20530;-68
2023/10/06 01:40:24;;;;;;;6.03;5.93;;;11.40;99.90;;;;;;5090667;28;20598;-66
2023/10/06 01:42:51;;;;;;;6.40;6.30;;;11.40;99.90;;;;;;5098055;28;20812;-66
2023/10/06 01:45:21;;;;;;;6.57;6.47;;;11.40;99.90;;;;;;5091705;28;20457;-66
2023/10/06 01:47:55;;;;;;;6.03;5.93;;;11.40;99.90;;;;;;5096442;28;20871;-66
2023/10/06 01:50:26;;;;;;;6.17;6.07;;;11.40;99.90;;;;;;5098794;28;20955;-67
2023/10/06 01:52:56;;;;;;;6.30;6.20;;;11.40;99.90;;;;;;5098419;28;20475;-65
2023/10/06 01:55:24;;;;;;;6.20;6.10;;;11.50;99.90;;;;;;5098994;28;20477;-67
2023/10/06 01:57:52;;;;;;;6.03;5.93;;;11.50;99.90;;;;;;5101359;28;20537;-66
2023/10/06 02:00:31;;;;;;;6.13;6.03;;;11.40;99.90;;;;;;5090527;28;20788;-66
2023/10/06 02:02:58;;;;;;;6.50;6.40;;;11.50;99.90;;;;;;5092438;28;20816;-66
2023/10/06 02:05:25;;;;;;;6.17;6.07;;;11.50;99.90;;;;;;5088342;28;21277;-66
2023/10/06 02:08:00;;;;;;;6.37;6.27;;;11.40;99.90;;;;;;5101730;28;20462;-67
2023/10/06 02:10:32;;;;;;;6.53;6.43;;;11.40;99.90;;;;;;5092059;28;20461;-66
2023/10/06 02:12:59;;;;;;;6.43;6.33;;;11.40;99.90;;;;;;5098676;28;20463;-65
2023/10/06 02:15:27;;;;;;;6.20;6.10;;;11.40;99.90;;;;;;5096476;28;20477;-66
2023/10/06 02:17:53;;;;;;;6.40;6.30;;;11.40;99.90;;;;;;5094791;28;20468;-67
2023/10/06 02:20:30;;;;;;;5.97;5.87;;;11.40;99.90;;;;;;5098557;28;20465;-68
2023/10/06 02:22:58;;;;;;;5.90;5.80;;;11.40;99.90;;;;;;5095862;28;20460;-66
2023/10/06 02:25:28;;;;;;;6.60;6.50;;;11.40;99.90;;;;;;5095119;28;20489;-66
2023/10/06 02:27:59;;;;;;;5.80;5.70;;;11.30;99.90;;;;;;5095546;28;20470;-66
2023/10/06 02:30:33;;;;;;;6.03;5.93;;;11.40;99.90;;;;;;5105440;28;20449;-68
2023/10/06 02:33:03;;;;;;;6.33;6.23;;;11.40;99.90;;;;;;5097664;28;20448;-68
2023/10/06 02:35:29;;;;;;;7.00;6.90;;;11.30;99.90;;;;;;5095973;28;21112;-68
2023/10/06 02:37:57;;;;;;;6.50;6.40;;;11.20;99.90;;;;;;5096656;28;20488;-66
2023/10/06 02:40:30;;;;;;;6.40;6.30;;;11.20;99.90;;;;;;5091449;28;20458;-67
2023/10/06 02:43:06;;;;;;;7.00;6.90;;;11.20;99.90;;;;;;5106426;28;20506;-66
2023/10/06 02:45:40;;;;;;;6.17;6.07;;;11.20;99.90;;;;;;5104131;28;20458;-67
2023/10/06 02:48:14;;;;;;;6.50;6.40;;;11.20;99.90;;;;;;5092942;27;20472;-67
2023/10/06 02:50:44;;;;;;;6.50;6.40;;;11.20;99.90;;;;;;5097742;28;20464;-66
2023/10/06 02:53:14;;;;;;;6.60;6.50;;;11.20;99.90;;;;;;5106381;28;20466;-66
2023/10/06 02:55:44;;;;;;;6.67;6.57;;;11.20;99.90;;;;;;5107723;28;20879;-67
2023/10/06 02:58:24;;;;;;;6.33;6.23;;;11.20;99.90;;;;;;5098838;28;20514;-66
2023/10/06 03:00:51;;;;;;;6.47;6.37;;;11.20;99.90;;;;;;5103825;28;20462;-66
2023/10/06 03:03:22;;;;;;;6.40;6.30;;;11.20;99.90;;;;;;5093431;28;20457;-66
2023/10/06 03:05:51;;;;;;;7.10;7.00;;;11.20;99.90;;;;;;5101860;28;20460;-66
2023/10/06 03:08:20;;;;;;;6.67;6.57;;;11.20;99.90;;;;;;5096946;28;20469;-66
2023/10/06 03:10:48;;;;;;;6.97;6.87;;;11.20;99.90;;;;;;5097772;28;20469;-67
2023/10/06 03:13:29;;;;;;;5.90;5.80;;;11.20;99.90;;;;;;5105741;28;20457;-66
2023/10/06 03:15:59;;;;;;;5.87;5.77;;;11.20;99.90;;;;;;5102443;28;20499;-67
2023/10/06 03:18:28;;;;;;;6.40;6.30;;;11.20;99.90;;;;;;5101919;28;20465;-66
2023/10/06 03:21:04;;;;;;;6.40;6.30;;;11.30;99.90;;;;;;5105010;28;20967;-67
2023/10/06 03:23:32;;;;;;;6.40;6.30;;;11.30;99.90;;;;;;5098205;28;20590;-65
2023/10/06 03:26:02;;;;;;;5.77;5.67;;;11.30;99.90;;;;;;5101221;28;20457;-66
2023/10/06 03:28:36;;;;;;;6.13;6.03;;;11.30;99.90;;;;;;5101599;28;20663;-66
2023/10/06 03:31:21;;;;;;;5.80;5.70;;;11.30;99.90;;;;;;5091412;28;20570;-66
2023/10/06 03:33:48;;;;;;;5.73;5.63;;;11.40;99.90;;;;;;5104516;28;20943;-65
2023/10/06 03:36:16;;;;;;;5.50;5.40;;;11.30;99.90;;;;;;5098214;28;20543;-66
2023/10/06 03:38:54;;;;;;;5.50;5.40;;;11.30;99.90;;;;;;5101655;28;20508;-65
2023/10/06 03:41:26;;;;;;;5.60;5.50;;;11.30;99.90;;;;;;5092759;28;20504;-68
2023/10/06 03:44:00;;;;;;;5.90;5.80;;;11.30;99.90;;;;;;5094781;28;20500;-66
2023/10/06 03:46:35;;;;;;;6.10;6.00;;;11.30;99.90;;;;;;5105419;28;20922;-67
2023/10/06 03:49:03;;;;;;;6.40;6.30;;;11.30;99.90;;;;;;5099318;28;20465;-66
2023/10/06 03:51:33;;;;;;;6.10;6.00;;;11.30;99.90;;;;;;5093536;28;20458;-66
2023/10/06 03:54:00;;;;;;;6.00;5.90;;;11.30;99.90;;;;;;5108367;28;20457;-68
2023/10/06 03:56:27;;;;;;;6.07;5.97;;;11.30;99.90;;;;;;5094987;28;20461;-68
2023/10/06 03:58:59;;;;;;;6.70;6.60;;;11.20;99.90;;;;;;5099658;28;20449;-69
2023/10/06 04:01:27;;;;;;;6.60;6.50;;;11.30;99.90;;;;;;5090659;28;20457;-69
2023/10/06 04:03:54;;;;;;;6.50;6.40;;;11.20;99.90;;;;;;5095036;28;20849;-68
2023/10/06 04:06:23;;;;;;;6.47;6.37;;;11.30;99.90;;;;;;5096536;28;21193;-67
2023/10/06 04:08:52;;;;;;;6.33;6.23;;;11.30;99.90;;;;;;5097682;28;20815;-67
2023/10/06 04:11:21;;;;;;;6.57;6.47;;;11.20;99.90;;;;;;5100921;28;20513;-67
2023/10/06 04:13:48;;;;;;;6.57;6.47;;;11.20;99.90;;;;;;5096678;27;20469;-68
2023/10/06 04:16:19;;;;;;;6.67;6.57;;;11.20;99.90;;;;;;5104787;28;20565;-67
2023/10/06 04:18:47;;;;;;;6.27;6.17;;;11.20;99.90;;;;;;5092425;28;20528;-66
2023/10/06 04:21:14;;;;;;;6.20;6.10;;;11.20;99.90;;;;;;5093039;28;20449;-67
2023/10/06 04:23:42;;;;;;;6.40;6.30;;;11.20;99.90;;;;;;5093864;28;20469;-68
2023/10/06 04:26:10;;;;;;;6.20;6.10;;;11.20;99.90;;;;;;5103307;28;20456;-66
2023/10/06 04:28:39;;;;;;;6.20;6.10;;;11.20;99.90;;;;;;5103521;28;20959;-67
2023/10/06 04:31:06;;;;;;;6.83;6.73;;;11.10;99.90;;;;;;5100817;28;20772;-69
2023/10/06 04:33:35;;;;;;;7.30;7.20;;;11.10;99.90;;;;;;5102323;28;20971;-68
2023/10/06 04:36:07;;;;;;;6.83;6.73;;;11.10;99.90;;;;;;5096527;28;20446;-67
2023/10/06 04:38:37;;;;;;;6.70;6.60;;;11.00;99.90;;;;;;5089265;28;20464;-67
2023/10/06 04:41:06;;;;;;;7.10;7.00;;;11.00;99.90;;;;;;5089665;28;20486;-68
2023/10/06 04:43:34;;;;;;;7.20;7.10;;;11.00;99.90;;;;;;5093322;28;20465;-67
2023/10/06 04:46:00;;;;;;;6.30;6.20;;;11.00;99.90;;;;;;5103386;28;20455;-67
2023/10/06 04:48:29;;;;;;;7.00;6.90;;;11.10;99.90;;;;;;5093564;28;20984;-69
2023/10/06 04:51:02;;;;;;;6.30;6.20;;;11.10;99.90;;;;;;5103712;28;21022;-67
2023/10/06 04:53:29;;;;;;;6.57;6.47;;;11.10;99.90;;;;;;5099853;28;20841;-69
2023/10/06 04:55:57;;;;;;;6.17;6.07;;;11.10;99.90;;;;;;5089495;28;20508;-66
2023/10/06 04:58:24;;;;;;;6.23;6.13;;;11.10;99.90;;;;;;5087887;28;20461;-67
2023/10/06 05:00:53;;;;;;;6.53;6.43;;;11.10;99.90;;;;;;5099862;28;21009;-68
2023/10/06 05:03:20;;;;;;;7.00;6.90;;;11.20;99.90;;;;;;5092349;28;20465;-67
2023/10/06 05:05:50;;;;;;;6.73;6.63;;;11.10;99.90;;;;;;5088552;28;20875;-67
2023/10/06 05:08:18;;;;;;;6.60;6.50;;;11.20;99.90;;;;;;5091791;28;20496;-67
2023/10/06 05:10:46;;;;;;;6.87;6.77;;;11.20;99.90;;;;;;5097298;28;20515;-67
2023/10/06 05:13:14;;;;;;;6.73;6.63;;;11.10;99.90;;;;;;5094457;28;20466;-69
2023/10/06 05:15:42;;;;;;;6.83;6.73;;;11.10;99.90;;;;;;5095157;28;20484;-67
2023/10/06 05:18:13;;;;;;;6.80;6.70;;;11.10;99.90;;;;;;5099905;28;20586;-67
2023/10/06 05:20:42;;;;;;;6.97;6.87;;;11.10;99.90;;;;;;5103527;28;20448;-67
2023/10/06 05:23:11;;;;;;;6.73;6.63;;;11.10;99.90;;;;;;5104131;28;20477;-66
2023/10/06 05:25:40;;;;;;;6.90;6.80;;;11.10;99.90;;;;;;5096919;28;20496;-67
2023/10/06 05:28:10;;;;;;;7.53;7.43;;;11.10;99.90;;;;;;5098923;28;20449;-67
2023/10/06 05:30:38;;;;;;;6.83;6.73;;;11.10;99.90;;;;;;5086732;28;20461;-67
2023/10/06 05:33:06;;;;;;;7.13;7.03;;;11.10;99.90;;;;;;5096352;28;21207;-67
2023/10/06 05:35:38;;;;;;;6.93;6.83;;;11.10;99.90;;;;;;5101453;28;20518;-67
2023/10/06 05:38:07;;;;;;;7.07;6.97;;;11.10;99.90;;;;;;5087024;28;20830;-67
2023/10/06 05:40:34;;;;;;;7.17;7.07;;;11.10;99.90;;;;;;5095059;28;20495;-67
2023/10/06 05:43:04;;;;;;;6.00;5.90;;;11.10;99.90;;;;;;5095188;27;20942;-66
2023/10/06 05:45:31;;;;;;;7.20;7.10;;;11.10;99.90;;;;;;5103087;27;20845;-68
2023/10/06 05:47:59;;;;;;;6.60;6.50;;;11.00;99.90;;;;;;5084339;28;21107;-66
2023/10/06 05:50:27;;;;;;;6.53;6.43;;;11.00;99.90;;;;;;5098419;28;20460;-66
2023/10/06 05:53:01;;;;;;;6.27;6.17;;;11.00;99.90;;;;;;5091975;27;20948;-67
2023/10/06 05:55:33;;;;;;;6.27;6.17;;;11.00;99.90;;;;;;5095982;28;20476;-67
2023/10/06 05:58:03;;;;;;;6.50;6.40;;;11.00;99.90;;;;;;5097826;28;20457;-67
2023/10/06 06:00:31;;;;;;;6.20;6.10;;;11.00;99.90;;;;;;5098081;28;20477;-67
2023/10/06 06:03:10;;;;;;;6.40;6.30;;;11.00;99.90;;;;;;5090206;28;20450;-67
2023/10/06 06:05:38;;;;;;;6.20;6.10;;;11.10;99.90;;;;;;5093074;28;20501;-67
2023/10/06 06:08:05;;;;;;;6.17;6.07;;;11.10;99.90;;;;;;5099413;28;20465;-69
2023/10/06 06:10:32;;;;;;;6.13;6.03;;;11.00;99.90;;;;;;5095558;28;20561;-67
2023/10/06 06:13:02;;;;;;;6.07;5.97;;;11.00;99.90;;;;;;5094827;28;20484;-66
2023/10/06 06:15:31;;;;;;;6.83;6.73;;;10.90;99.90;;;;;;5095979;28;20486;-68
2023/10/06 06:18:00;;;;;;;7.10;7.00;;;10.90;99.90;;;;;;5089913;28;20473;-67
2023/10/06 06:20:27;;;;;;;6.70;6.60;;;11.00;99.90;;;;;;5100995;28;20457;-68
2023/10/06 06:22:55;;;;;;;6.77;6.67;;;11.00;99.90;;;;;;5107572;28;20456;-67
2023/10/06 06:25:22;;;;;;;6.30;6.20;;;11.20;99.90;;;;;;5109015;28;20488;-67
2023/10/06 06:27:49;;;;;;;6.50;6.40;;;11.30;99.90;;;;;;5093758;28;20473;-69
2023/10/06 06:30:18;;;;;;;5.73;5.63;;;11.30;99.90;;;;;;5100701;28;20445;-67
2023/10/06 06:32:48;;;;;;;6.20;6.10;;;11.40;99.90;;;;;;5096891;28;20453;-69
2023/10/06 06:35:16;;;;;;;6.00;5.90;;;11.50;99.90;;;;;;5091807;28;20498;-69
2023/10/06 06:37:42;;;;;;;6.40;6.30;;;11.60;99.90;;;;;;5095268;28;20957;-67
2023/10/06 06:40:12;;;;;;;6.33;6.23;;;11.70;99.90;;;;;;5105107;28;20488;-68
2023/10/06 06:42:41;;;;;;;6.63;6.53;;;11.80;99.90;;;;;;5103640;28;20453;-67
2023/10/06 06:45:13;;;;;;;6.80;6.70;;;11.90;99.90;;;;;;5092335;28;20923;-69
2023/10/06 06:47:43;;;;;;;6.50;6.40;;;12.10;99.90;;;;;;5095579;28;20458;-67
2023/10/06 06:50:12;;;;;;;6.50;6.40;;;12.20;99.90;;;;;;5098022;28;20484;-69
2023/10/06 06:52:39;;;;;;;6.50;6.40;;;12.40;99.90;;;;;;5097318;28;20554;-67
2023/10/06 06:55:12;;;;;;;6.87;6.77;;;12.50;99.90;;;;;;5096981;28;20465;-68
2023/10/06 06:57:43;;;;;;;7.40;7.30;;;12.60;99.90;;;;;;5100538;28;20450;-67
2023/10/06 07:00:16;;;;;;;7.70;7.60;;;12.80;99.90;;;;;;5096902;28;20501;-69
2023/10/06 07:02:46;;;;;;;7.10;7.00;;;13.00;99.90;;;;;;5108688;28;20931;-67
2023/10/06 07:05:15;;;;;;;8.00;7.90;;;13.20;99.90;;;;;;5089795;28;20888;-69
2023/10/06 07:07:43;;;;;;;8.20;8.10;;;13.30;99.90;;;;;;5090086;28;20967;-67
2023/10/06 07:10:13;;;;;;;8.57;8.47;;;13.40;99.90;;;;;;5089549;28;20468;-67
2023/10/06 07:12:41;;;;;;;8.50;8.40;;;13.50;99.90;;;;;;5092554;28;20452;-67
2023/10/06 07:15:14;;;;;;;9.00;8.80;;;13.60;99.90;;;;;;5103492;28;20777;-66
2023/10/06 07:17:45;;;;;;;8.77;8.67;;;13.80;99.90;;;;;;5102697;28;20449;-67
2023/10/06 07:20:16;;;;;;;8.70;8.60;;;13.90;99.90;;;;;;5095959;28;20462;-69
2023/10/06 07:22:45;;;;;;;9.03;8.87;;;14.10;99.90;;;;;;5100731;28;20468;-68
2023/10/06 07:25:12;;;;;;;9.20;9.00;;;14.20;99.90;;;;;;5099190;28;20576;-67
2023/10/06 07:27:40;;;;;;;9.83;9.63;;;14.30;99.90;;;;;;5100151;28;20462;-68
2023/10/06 07:30:11;;;;;;;9.60;9.40;;;14.40;99.90;;;;;;5094706;28;20462;-67
2023/10/06 07:32:41;;;;;;;10.30;10.10;;;14.40;99.90;;;;;;5090302;28;20951;-68
2023/10/06 07:35:12;;;;;;;9.70;9.50;;;14.40;99.90;;;;;;5098524;28;20464;-68
2023/10/06 07:37:42;;;;;;;9.77;9.57;;;14.40;99.90;;;;;;5110689;27;20820;-68
2023/10/06 07:40:14;;;;;;;10.13;9.93;;;14.40;99.90;;;;;;5089297;28;20564;-69
2023/10/06 07:42:42;;;;;;;10.50;10.30;;;14.40;99.90;;;;;;5100650;28;20878;-67
2023/10/06 07:45:10;;;;;;;10.07;9.87;;;14.50;99.90;;;;;;5102503;28;20488;-67
2023/10/06 07:47:37;;;;;;;10.50;10.30;;;14.50;99.90;;;;;;5101760;28;20978;-66
2023/10/06 07:50:07;;;;;;;10.47;10.27;;;14.50;99.90;;;;;;5101898;28;20492;-66
2023/10/06 07:52:35;;;;;;;9.80;9.60;;;14.50;99.90;;;;;;5103679;28;20581;-66
2023/10/06 07:55:04;;;;;;;10.30;10.10;;;14.60;99.90;;;;;;5093505;28;20960;-69
2023/10/06 07:57:33;;;;;;;10.50;10.30;;;14.60;99.90;;;;;;5096077;28;20453;-66
2023/10/06 08:00:04;;;;;;;10.50;10.30;;;14.60;99.90;;;;;;5093571;28;20458;-67
2023/10/06 08:02:31;;;;;;;10.30;10.10;;;14.70;99.90;;;;;;5103346;28;20489;-67
2023/10/06 08:04:59;;;;;;;10.50;10.30;;;14.70;99.90;;;;;;5100712;28;20497;-66
2023/10/06 08:07:27;;;;;;;10.90;10.70;;;14.80;99.90;;;;;;5096706;28;20497;-68
2023/10/06 08:09:59;;;;;;;10.07;9.87;;;14.80;99.90;;;;;;5091291;28;20530;-68
2023/10/06 08:12:27;;;;;;;10.77;10.57;;;14.80;99.90;;;;;;5103330;28;20458;-67
2023/10/06 08:14:54;;;;;;;11.10;10.80;;;14.90;99.90;;;;;;5096911;28;20453;-66
2023/10/06 08:17:21;;;;;;;10.83;10.63;;;14.90;99.90;;;;;;5095354;28;20481;-66
2023/10/06 08:19:47;;;;;;;10.50;10.30;;;15.00;99.90;;;;;;5094015;28;20465;-68
2023/10/06 08:22:15;;;;;;;10.63;10.43;;;15.00;99.90;;;;;;5092188;28;20973;-66
2023/10/06 08:24:43;;;;;;;11.23;10.93;;;15.10;99.90;;;;;;5100676;28;20450;-66
2023/10/06 08:27:12;;;;;;;11.37;11.07;;;15.10;99.90;;;;;;5096232;28;20489;-66
2023/10/06 08:29:41;;;;;;;11.30;11.00;;;15.20;99.90;;;;;;5105082;28;20475;-67
2023/10/06 08:32:08;;;;;;;11.73;11.43;;;15.30;99.90;;;;;;5097652;28;20900;-67
2023/10/06 08:34:39;;;;;;;11.70;11.40;;;15.40;99.90;;;;;;5091877;28;20461;-69
2023/10/06 08:37:21;;;;;;;11.20;10.90;;;15.50;99.90;;;;;;5097780;28;20461;-67
2023/10/06 08:39:48;;;;;;;11.60;11.30;;;15.60;99.90;;;;;;5098388;28;20457;-66
2023/10/06 08:42:16;;;;;;;11.80;11.50;;;15.70;99.90;;;;;;5099383;28;20578;-66
2023/10/06 08:44:44;;;;;;;11.60;11.30;;;15.80;99.90;;;;;;5089074;28;20489;-66
2023/10/06 08:47:14;;;;;;;11.50;11.20;;;15.80;99.90;;;;;;5107305;28;20584;-67
2023/10/06 08:49:41;;;;;;;12.00;11.70;;;15.90;99.90;;;;;;5097495;28;20552;-68
2023/10/06 08:52:10;;;;;;;11.77;11.47;;;15.90;99.90;;;;;;5100784;28;20457;-69
2023/10/06 08:54:39;;;;;;;11.90;11.60;;;16.00;99.90;;;;;;5095978;28;20457;-66
2023/10/06 08:57:06;;;;;;;12.10;11.80;;;16.10;99.90;;;;;;5098028;28;20458;-68
2023/10/06 08:59:35;;;;;;;12.00;11.70;;;16.20;99.90;;;;;;5092517;28;20454;-69
2023/10/06 09:02:02;;;;;;;11.90;11.60;;;16.40;99.90;;;;;;5093093;28;20457;-68
2023/10/06 09:04:37;;;;;;;12.03;11.73;;;16.40;99.90;;;;;;5098757;28;21115;-66
2023/10/06 09:07:07;;;;;;;11.57;11.27;;;16.50;99.90;;;;;;5100073;28;21127;-66
2023/10/06 09:09:36;;;;;;;11.60;11.30;;;16.50;99.90;;;;;;5091833;28;20545;-65
2023/10/06 09:12:04;;;;;;;11.90;11.60;;;16.60;99.90;;;;;;5090543;28;20952;-65
2023/10/06 09:14:31;;;;;;;12.00;11.70;;;16.70;99.90;;;;;;5103926;28;20484;-66
2023/10/06 09:17:02;;;;;;;12.00;11.70;;;16.70;99.90;;;;;;5108406;28;20480;-66
2023/10/06 09:19:46;;;;;;;12.20;11.90;;;16.90;99.90;;;;;;5103888;28;20458;-66
2023/10/06 09:22:16;;;;;;;11.83;11.53;;;16.90;99.90;;;;;;5096768;28;20461;-66
2023/10/06 09:24:55;;;;;;;11.40;11.10;;;17.00;99.90;;;;;;5097432;28;20471;-66
2023/10/06 09:27:25;;;;;;;12.20;11.90;;;17.10;99.90;;;;;;5087233;28;20673;-65
2023/10/06 09:30:00;;;;;;;12.23;11.93;;;17.10;99.90;;;;;;5097229;28;20454;-66
2023/10/06 09:32:28;;;;;;;12.00;11.70;;;17.10;99.90;;;;;;5100475;28;21031;-66
2023/10/06 09:34:57;;;;;;;12.27;11.97;;;17.10;99.90;;;;;;5095717;28;20460;-66
2023/10/06 09:37:25;;;;;;;12.23;11.93;;;17.20;99.90;;;;;;5106459;28;20481;-68
2023/10/06 09:40:10;;;;;;;12.83;12.43;;;17.30;99.90;;;;;;5099310;28;20555;-67
2023/10/06 09:42:37;;;;;;;11.80;11.50;;;17.50;99.90;;;;;;5096713;28;20480;-65
2023/10/06 09:45:15;;;;;;;12.70;12.37;;;17.70;99.90;;;;;;5094505;28;20491;-67
2023/10/06 09:47:49;;;;;;;12.37;12.07;;;17.90;99.90;;;;;;5094774;28;20489;-66
2023/10/06 09:50:18;;;;;;;12.30;12.00;;;18.40;99.90;;;;;;5101944;28;20458;-65
2023/10/06 09:52:47;;;;;;;12.10;11.80;;;18.70;99.90;;;;;;5100268;28;20484;-69
2023/10/06 09:55:17;;;;;;;11.87;11.57;;;19.10;99.90;;;;;;5090505;28;20951;-66
2023/10/06 09:57:47;;;;;;;12.20;11.90;;;19.00;99.90;;;;;;5106742;28;20453;-66
2023/10/06 10:00:17;;;;;;;12.57;12.23;;;19.10;99.90;;;;;;5093716;28;20810;-68
2023/10/06 10:02:47;;;;;;;12.30;12.00;;;19.30;99.90;;;;;;5094251;28;20469;-66
2023/10/06 10:05:18;;;;;;;12.60;12.30;;;19.60;99.90;;;;;;5101342;28;20809;-66
2023/10/06 10:07:46;;;;;;;12.40;12.10;;;19.50;99.90;;;;;;5092577;28;20515;-67
2023/10/06 10:10:14;;;;;;;12.10;11.80;;;19.70;99.90;;;;;;5094413;28;20899;-66
2023/10/06 10:13:07;;;;;;;12.00;11.70;;;19.80;99.90;;;;;;5101468;28;20469;-66
2023/10/06 10:15:43;;;;;;;11.93;11.63;;;19.70;99.90;;;;;;5095752;28;20516;-68
2023/10/06 10:18:24;;;;;;;12.60;12.30;;;20.00;99.90;;;;;;5090757;28;20901;-66
2023/10/06 10:20:52;;;;;;;12.40;12.10;;;20.20;99.90;;;;;;5094656;28;20473;-64
2023/10/06 10:23:19;;;;;;;12.20;11.90;;;20.30;99.90;;;;;;5103455;28;20457;-66
2023/10/06 10:25:46;;;;;;;12.20;11.90;;;20.50;99.90;;;;;;5095009;28;20477;-66
2023/10/06 10:28:19;;;;;;;12.60;12.30;;;20.60;99.90;;;;;;5092246;28;20480;-65
2023/10/06 10:30:53;;;;;;;12.60;12.30;;;20.50;99.90;;;;;;5098973;28;20483;-66
2023/10/06 10:33:29;;;;;;;12.77;12.37;;;20.60;99.90;;;;;;5092936;28;20461;-66
2023/10/06 10:36:21;;;;;;;12.70;12.40;;;20.80;99.90;;;;;;5096166;28;21082;-65
2023/10/06 10:39:01;;;;;;;13.03;12.63;;;21.00;99.90;;;;;;5098293;28;20464;-67
2023/10/06 10:41:31;;;;;;;12.90;12.50;;;21.00;99.90;;;;;;5087266;28;20484;-65
2023/10/06 10:44:03;;;;;;;13.30;12.90;;;20.70;99.90;;;;;;5094380;28;20465;-68
2023/10/06 10:46:31;;;;;;;13.10;12.70;;;20.60;99.90;;;;;;5086341;28;20568;-67
2023/10/06 10:49:01;;;;;;;13.10;12.70;;;20.90;99.90;;;;;;5093077;28;20483;-67
2023/10/06 10:51:33;;;;;;;13.03;12.63;;;21.50;99.90;;;;;;5098321;28;20894;-67
2023/10/06 10:54:00;;;;;;;12.93;12.53;;;21.50;99.90;;;;;;5096067;28;20480;-65
2023/10/06 10:56:35;;;;;;;13.10;12.70;;;21.20;99.90;;;;;;5103425;28;20544;-68
2023/10/06 10:59:02;;;;;;;13.20;12.80;;;21.30;99.90;;;;;;5089548;28;20458;-65
2023/10/06 11:01:31;;;;;;;13.07;12.67;;;21.50;99.90;;;;;;5097474;28;20481;-65
2023/10/06 11:04:26;;;;;;;13.47;13.07;;;21.50;99.90;;;;;;5092638;28;20466;-65
2023/10/06 11:06:55;;;;;;;13.40;13.00;;;21.30;99.90;;;;;;5093703;28;20478;-66
2023/10/06 11:09:29;;;;;;;13.60;13.20;;;21.20;99.90;;;;;;5092949;28;20545;-65
2023/10/06 11:11:58;;;;;;;12.87;12.50;;;21.10;99.90;;;;;;5104746;28;20551;-65
2023/10/06 11:14:26;;;;;;;13.30;12.90;;;21.40;99.90;;;;;;5099467;28;20884;-67
2023/10/06 11:16:59;;;;;;;13.40;13.00;;;21.80;99.90;;;;;;5094475;28;21013;-66
2023/10/06 11:19:28;;;;;;;13.40;13.00;;;21.90;99.90;;;;;;5103133;28;20448;-65
2023/10/06 11:21:55;;;;;;;13.77;13.37;;;21.50;99.90;;;;;;5090422;27;20458;-66
2023/10/06 11:24:26;;;;;;;13.10;12.70;;;21.30;99.90;;;;;;5097964;28;20472;-66
2023/10/06 11:26:54;;;;;;;13.40;13.00;;;21.40;99.90;;;;;;5089524;28;20485;-65
2023/10/06 11:29:31;;;;;;;13.40;13.00;;;22.20;99.90;;;;;;5104265;28;20461;-65
2023/10/06 11:32:00;;;;;;;13.10;12.70;;;22.50;99.90;;;;;;5095587;28;20821;-66
2023/10/06 11:34:28;;;;;;;13.30;12.90;;;22.80;99.90;;;;;;5107520;28;20481;-65
2023/10/06 11:36:56;;;;;;;13.60;13.20;;;22.60;99.90;;;;;;5100875;27;20549;-66
2023/10/06 11:39:24;;;;;;;12.73;12.43;;;22.70;99.90;;;;;;5093853;28;20514;-64
2023/10/06 11:41:55;;;;;;;13.10;12.70;;;22.40;99.90;;;;;;5091595;28;20988;-67
2023/10/06 11:44:22;;;;;;;13.20;12.80;;;22.60;99.90;;;;;;5091018;28;20454;-66
2023/10/06 11:46:50;;;;;;;13.30;12.90;;;23.20;99.90;;;;;;5092065;28;20488;-65
2023/10/06 11:49:20;;;;;;;12.60;12.30;;;23.00;99.90;;;;;;5094840;28;20949;-67
2023/10/06 11:51:49;;;;;;;12.87;12.57;;;22.90;99.90;;;;;;5089495;28;20972;-66
2023/10/06 11:54:15;;;;;;;13.43;13.03;;;23.20;99.90;;;;;;5101825;28;20453;-66
2023/10/06 11:56:49;;;;;;;13.70;13.30;;;23.10;99.90;;;;;;5092552;28;20458;-67
2023/10/06 11:59:20;;;;;;;13.27;12.87;;;22.60;99.90;;;;;;5096609;28;20503;-66
2023/10/06 12:01:47;;;;;;;12.90;12.60;;;22.50;99.90;;;;;;5102344;28;20875;-67
2023/10/06 12:04:30;;;;;;;12.60;12.30;;;22.60;99.90;;;;;;5096780;28;20461;-65
2023/10/06 12:06:58;;;;;;;12.93;12.63;;;22.80;99.90;;;;;;5092378;28;20481;-67
2023/10/06 12:09:29;;;;;;;13.30;12.90;;;23.20;99.90;;;;;;5087114;28;20469;-66
2023/10/06 12:11:59;;;;;;;13.20;12.80;;;23.30;99.90;;;;;;5098579;27;20454;-66
2023/10/06 12:14:26;;;;;;;13.00;12.70;;;23.40;99.90;;;;;;5099922;28;20506;-66
2023/10/06 12:16:54;;;;;;;13.03;12.73;;;23.10;99.90;;;;;;5092799;28;20474;-67
2023/10/06 12:19:21;;;;;;;13.50;13.10;;;23.40;99.90;;;;;;5099741;28;20461;-66
2023/10/06 12:21:48;;;;;;;12.77;12.47;;;23.60;99.90;;;;;;5089875;28;20531;-66
2023/10/06 12:24:17;;;;;;;13.33;12.93;;;23.90;99.90;;;;;;5099748;28;21248;-67
2023/10/06 12:26:46;;;;;;;12.97;12.67;;;23.60;99.90;;;;;;5103820;28;20524;-66
2023/10/06 12:29:16;;;;;;;13.60;13.20;;;24.00;99.90;;;;;;5090853;28;20488;-66
2023/10/06 12:31:45;;;;;;;13.20;12.80;;;24.40;99.90;;;;;;5106976;28;20893;-67
2023/10/06 12:34:15;;;;;;;13.40;13.00;;;24.60;99.90;;;;;;5092082;28;20468;-66
2023/10/06 12:36:47;;;;;;;13.50;13.10;;;24.40;99.90;;;;;;5091530;28;20454;-67
2023/10/06 12:39:17;;;;;;;13.80;13.40;;;23.90;99.90;;;;;;5098839;28;20457;-66
2023/10/06 12:41:47;;;;;;;13.90;13.50;;;24.00;99.90;;;;;;5099445;27;20504;-67
2023/10/06 12:44:14;;;;;;;13.60;13.20;;;24.40;99.90;;;;;;5105745;28;20845;-67
2023/10/06 12:46:42;;;;;;;13.73;13.33;;;24.00;99.90;;;;;;5095029;28;20482;-67
2023/10/06 12:49:10;;;;;;;14.53;14.13;;;24.40;99.90;;;;;;5087347;28;20846;-68
2023/10/06 12:51:36;;;;;;;13.87;13.47;;;23.40;99.90;;;;;;5091104;28;20461;-66
2023/10/06 12:54:03;;;;;;;14.00;13.60;;;23.50;99.90;;;;;;5093824;28;20817;-67